sensor_id;sensor_type;location;lat;lon;timestamp;temperature;humidity
23609;DHT22;11982;50.810;4.442;2023-06-10T00:01:13;20.10;99.90
23609;DHT22;11982;50.810;4.442;2023-06-10T00:03:39;19.90;99.90
23609;DHT22;11982;50.810;4.442;2023-06-10T00:06:06;19.70;99.90
23609;DHT22;11982;50.810;4.442;2023-06-10T00:08:32;19.70;99.90
23609;DHT22;11982;50.810;4.442;2023-06-10T00:10:58;19.60;99.90
23609;DHT22;11982;50.810;4.442;2023-06-10T00:13:24;19.60;99.90
23609;DHT22;11982;50.810;4.442;2023-06-10T00:15:50;19.50;99.90
23609;DHT22;11982;50.810;4.442;2023-06-10T00:18:16;19.40;99.90
23609;DHT22;11982;50.810;4.442;2023-06-10T00:20:47;19.30;99.90
23609;DHT22;11982;50.810;4.442;2023-06-10T00:23:14;19.20;99.90
23609;DHT22;11982;50.810;4.442;2023-06-10T00:25:40;19.10;99.90
23609;DHT22;11982;50.810;4.442;2023-06-10T00:28:05;19.10;99.90
23609;DHT22;11982;50.810;4.442;2023-06-10T00:30:31;19.10;99.90
23609;DHT22;11982;50.810;4.442;2023-06-10T00:32:57;19.10;99.90
23609;DHT22;11982;50.810;4.442;2023-06-10T00:35:22;19.10;99.90
23609;DHT22;11982;50.810;4.442;2023-06-10T00:37:48;19.00;99.90
23609;DHT22;11982;50.810;4.442;2023-06-10T00:40:14;19.00;99.90
23609;DHT22;11982;50.810;4.442;2023-06-10T00:42:40;19.00;99.90
23609;DHT22;11982;50.810;4.442;2023-06-10T00:45:06;19.00;99.90
23609;DHT22;11982;50.810;4.442;2023-06-10T00:47:32;19.10;99.90
23609;DHT22;11982;50.810;4.442;2023-06-10T00:49:58;19.10;99.90
23609;DHT22;11982;50.810;4.442;2023-06-10T00:52:28;19.00;99.90
23609;DHT22;11982;50.810;4.442;2023-06-10T00:54:54;19.10;99.90
23609;DHT22;11982;50.810;4.442;2023-06-10T00:57:20;19.10;99.90
23609;DHT22;11982;50.810;4.442;2023-06-10T00:59:48;19.00;99.90
23609;DHT22;11982;50.810;4.442;2023-06-10T01:02:14;19.10;99.90
23609;DHT22;11982;50.810;4.442;2023-06-10T01:04:40;19.10;99.90
23609;DHT22;11982;50.810;4.442;2023-06-10T01:07:25;19.10;99.90
23609;DHT22;11982;50.810;4.442;2023-06-10T01:10:16;19.10;99.90
23609;DHT22;11982;50.810;4.442;2023-06-10T01:12:58;19.00;99.90
23609;DHT22;11982;50.810;4.442;2023-06-10T01:15:31;19.00;99.90
23609;DHT22;11982;50.810;4.442;2023-06-10T01:18:04;18.80;99.90
23609;DHT22;11982;50.810;4.442;2023-06-10T01:20:34;18.70;99.90
23609;DHT22;11982;50.810;4.442;2023-06-10T01:23:02;18.80;99.90
23609;DHT22;11982;50.810;4.442;2023-06-10T01:25:29;18.80;99.90
23609;DHT22;11982;50.810;4.442;2023-06-10T01:28:18;18.80;99.90
23609;DHT22;11982;50.810;4.442;2023-06-10T01:31:23;18.90;99.90
23609;DHT22;11982;50.810;4.442;2023-06-10T01:33:52;19.00;99.90
23609;DHT22;11982;50.810;4.442;2023-06-10T01:36:18;19.10;99.90
23609;DHT22;11982;50.810;4.442;2023-06-10T01:38:46;19.10;99.90
23609;DHT22;11982;50.810;4.442;2023-06-10T01:41:13;19.00;99.90
23609;DHT22;11982;50.810;4.442;2023-06-10T01:43:43;19.10;99.90
23609;DHT22;11982;50.810;4.442;2023-06-10T01:46:11;19.00;99.90
23609;DHT22;11982;50.810;4.442;2023-06-10T01:48:41;18.90;99.90
23609;DHT22;11982;50.810;4.442;2023-06-10T01:51:10;18.80;99.90
23609;DHT22;11982;50.810;4.442;2023-06-10T01:53:35;18.80;99.90
23609;DHT22;11982;50.810;4.442;2023-06-10T01:56:01;18.70;99.90
23609;DHT22;11982;50.810;4.442;2023-06-10T01:58:27;18.50;99.90
23609;DHT22;11982;50.810;4.442;2023-06-10T02:00:52;18.60;99.90
23609;DHT22;11982;50.810;4.442;2023-06-10T02:03:18;18.50;99.90
23609;DHT22;11982;50.810;4.442;2023-06-10T02:05:44;18.50;99.90
23609;DHT22;11982;50.810;4.442;2023-06-10T02:08:09;18.50;99.90
23609;DHT22;11982;50.810;4.442;2023-06-10T02:10:35;18.50;99.90
23609;DHT22;11982;50.810;4.442;2023-06-10T02:13:01;18.40;99.90
23609;DHT22;11982;50.810;4.442;2023-06-10T02:15:26;18.30;99.90
23609;DHT22;11982;50.810;4.442;2023-06-10T02:17:52;18.40;99.90
23609;DHT22;11982;50.810;4.442;2023-06-10T02:20:18;18.30;99.90
23609;DHT22;11982;50.810;4.442;2023-06-10T02:22:44;18.30;99.90
23609;DHT22;11982;50.810;4.442;2023-06-10T02:25:10;18.30;99.90
23609;DHT22;11982;50.810;4.442;2023-06-10T02:27:36;18.10;99.90
23609;DHT22;11982;50.810;4.442;2023-06-10T02:30:01;18.00;99.90
23609;DHT22;11982;50.810;4.442;2023-06-10T02:32:27;17.80;99.90
23609;DHT22;11982;50.810;4.442;2023-06-10T02:34:53;17.70;99.90
23609;DHT22;11982;50.810;4.442;2023-06-10T02:37:19;17.80;99.90
23609;DHT22;11982;50.810;4.442;2023-06-10T02:39:45;17.80;99.90
23609;DHT22;11982;50.810;4.442;2023-06-10T02:42:11;17.80;99.90
23609;DHT22;11982;50.810;4.442;2023-06-10T02:44:37;17.80;99.90
23609;DHT22;11982;50.810;4.442;2023-06-10T02:47:04;17.80;99.90
23609;DHT22;11982;50.810;4.442;2023-06-10T02:49:29;17.70;99.90
23609;DHT22;11982;50.810;4.442;2023-06-10T02:51:55;17.70;99.90
23609;DHT22;11982;50.810;4.442;2023-06-10T02:54:25;17.70;99.90
23609;DHT22;11982;50.810;4.442;2023-06-10T02:56:51;17.80;99.90
23609;DHT22;11982;50.810;4.442;2023-06-10T02:59:17;17.70;99.90
23609;DHT22;11982;50.810;4.442;2023-06-10T03:01:43;17.70;99.90
23609;DHT22;11982;50.810;4.442;2023-06-10T03:04:09;17.40;99.90
23609;DHT22;11982;50.810;4.442;2023-06-10T03:06:35;17.20;99.90
23609;DHT22;11982;50.810;4.442;2023-06-10T03:09:02;17.20;99.90
23609;DHT22;11982;50.810;4.442;2023-06-10T03:11:29;17.30;99.90
23609;DHT22;11982;50.810;4.442;2023-06-10T03:13:55;17.40;99.90
23609;DHT22;11982;50.810;4.442;2023-06-10T03:16:21;17.50;99.90
23609;DHT22;11982;50.810;4.442;2023-06-10T03:18:47;17.50;99.90
23609;DHT22;11982;50.810;4.442;2023-06-10T03:21:12;17.50;99.90
23609;DHT22;11982;50.810;4.442;2023-06-10T03:23:38;17.50;99.90
23609;DHT22;11982;50.810;4.442;2023-06-10T03:26:04;17.50;99.90
23609;DHT22;11982;50.810;4.442;2023-06-10T03:28:33;17.30;99.90
23609;DHT22;11982;50.810;4.442;2023-06-10T03:30:58;17.30;99.90
23609;DHT22;11982;50.810;4.442;2023-06-10T03:33:24;17.30;99.90
23609;DHT22;11982;50.810;4.442;2023-06-10T03:35:50;17.20;99.90
23609;DHT22;11982;50.810;4.442;2023-06-10T03:38:16;17.10;99.90
23609;DHT22;11982;50.810;4.442;2023-06-10T03:40:42;17.00;99.90
23609;DHT22;11982;50.810;4.442;2023-06-10T03:43:07;17.00;99.90
23609;DHT22;11982;50.810;4.442;2023-06-10T03:45:33;17.20;99.90
23609;DHT22;11982;50.810;4.442;2023-06-10T03:47:59;17.30;99.90
23609;DHT22;11982;50.810;4.442;2023-06-10T03:50:25;17.40;99.90
23609;DHT22;11982;50.810;4.442;2023-06-10T03:52:51;17.30;99.90
23609;DHT22;11982;50.810;4.442;2023-06-10T03:55:17;17.30;99.90
23609;DHT22;11982;50.810;4.442;2023-06-10T03:57:43;17.40;99.90
23609;DHT22;11982;50.810;4.442;2023-06-10T04:00:09;17.50;99.90
23609;DHT22;11982;50.810;4.442;2023-06-10T04:02:38;17.50;99.90
23609;DHT22;11982;50.810;4.442;2023-06-10T04:05:12;17.50;99.90
23609;DHT22;11982;50.810;4.442;2023-06-10T04:07:38;17.50;99.90
23609;DHT22;11982;50.810;4.442;2023-06-10T04:10:06;17.60;99.90
23609;DHT22;11982;50.810;4.442;2023-06-10T04:12:32;17.60;99.90
23609;DHT22;11982;50.810;4.442;2023-06-10T04:14:58;17.60;99.90
23609;DHT22;11982;50.810;4.442;2023-06-10T04:17:25;17.80;99.90
23609;DHT22;11982;50.810;4.442;2023-06-10T04:19:51;17.90;99.90
23609;DHT22;11982;50.810;4.442;2023-06-10T04:22:18;18.00;99.90
23609;DHT22;11982;50.810;4.442;2023-06-10T04:24:43;18.00;99.90
23609;DHT22;11982;50.810;4.442;2023-06-10T04:27:09;18.20;99.90
23609;DHT22;11982;50.810;4.442;2023-06-10T04:29:35;18.30;99.90
23609;DHT22;11982;50.810;4.442;2023-06-10T04:32:01;18.50;99.90
23609;DHT22;11982;50.810;4.442;2023-06-10T04:34:28;18.60;99.90
23609;DHT22;11982;50.810;4.442;2023-06-10T04:36:53;18.80;99.90
23609;DHT22;11982;50.810;4.442;2023-06-10T04:39:19;18.90;99.90
23609;DHT22;11982;50.810;4.442;2023-06-10T04:41:45;19.00;99.90
23609;DHT22;11982;50.810;4.442;2023-06-10T04:44:12;19.20;99.90
23609;DHT22;11982;50.810;4.442;2023-06-10T04:46:37;19.30;99.90
23609;DHT22;11982;50.810;4.442;2023-06-10T04:49:03;19.40;99.90
23609;DHT22;11982;50.810;4.442;2023-06-10T04:51:30;19.50;99.90
23609;DHT22;11982;50.810;4.442;2023-06-10T04:53:57;19.50;99.90
23609;DHT22;11982;50.810;4.442;2023-06-10T04:56:23;19.50;99.90
23609;DHT22;11982;50.810;4.442;2023-06-10T04:58:49;19.70;99.90
23609;DHT22;11982;50.810;4.442;2023-06-10T05:01:15;19.80;99.90
23609;DHT22;11982;50.810;4.442;2023-06-10T05:03:41;20.00;99.90
23609;DHT22;11982;50.810;4.442;2023-06-10T05:06:07;20.20;99.90
23609;DHT22;11982;50.810;4.442;2023-06-10T05:08:33;20.40;99.90
23609;DHT22;11982;50.810;4.442;2023-06-10T05:10:59;20.50;99.90
23609;DHT22;11982;50.810;4.442;2023-06-10T05:13:24;20.50;99.90
23609;DHT22;11982;50.810;4.442;2023-06-10T05:15:50;20.50;99.90
23609;DHT22;11982;50.810;4.442;2023-06-10T05:18:16;20.50;99.90
23609;DHT22;11982;50.810;4.442;2023-06-10T05:20:42;20.70;99.90
23609;DHT22;11982;50.810;4.442;2023-06-10T05:23:07;20.80;99.90
23609;DHT22;11982;50.810;4.442;2023-06-10T05:25:33;20.90;99.90
23609;DHT22;11982;50.810;4.442;2023-06-10T05:27:59;21.10;99.90
23609;DHT22;11982;50.810;4.442;2023-06-10T05:30:25;21.20;99.90
23609;DHT22;11982;50.810;4.442;2023-06-10T05:32:52;21.20;99.90
23609;DHT22;11982;50.810;4.442;2023-06-10T05:35:18;21.30;99.90
23609;DHT22;11982;50.810;4.442;2023-06-10T05:37:44;21.20;99.90
23609;DHT22;11982;50.810;4.442;2023-06-10T05:40:10;21.20;99.90
23609;DHT22;11982;50.810;4.442;2023-06-10T05:42:36;21.30;99.90
23609;DHT22;11982;50.810;4.442;2023-06-10T05:45:02;21.20;99.90
23609;DHT22;11982;50.810;4.442;2023-06-10T05:47:28;21.30;99.90
23609;DHT22;11982;50.810;4.442;2023-06-10T05:49:54;21.30;99.90
23609;DHT22;11982;50.810;4.442;2023-06-10T05:52:20;21.40;99.90
23609;DHT22;11982;50.810;4.442;2023-06-10T05:54:46;21.50;99.90
23609;DHT22;11982;50.810;4.442;2023-06-10T05:57:12;21.50;99.90
23609;DHT22;11982;50.810;4.442;2023-06-10T05:59:37;21.60;99.90
23609;DHT22;11982;50.810;4.442;2023-06-10T06:02:03;21.70;99.90
23609;DHT22;11982;50.810;4.442;2023-06-10T06:04:29;21.90;99.90
23609;DHT22;11982;50.810;4.442;2023-06-10T06:06:54;22.10;99.90
23609;DHT22;11982;50.810;4.442;2023-06-10T06:09:20;22.20;99.90
23609;DHT22;11982;50.810;4.442;2023-06-10T06:11:46;22.30;99.90
23609;DHT22;11982;50.810;4.442;2023-06-10T06:14:12;22.50;99.90
23609;DHT22;11982;50.810;4.442;2023-06-10T06:16:38;22.50;99.90
23609;DHT22;11982;50.810;4.442;2023-06-10T06:19:04;22.40;99.90
23609;DHT22;11982;50.810;4.442;2023-06-10T06:21:29;22.50;99.90
23609;DHT22;11982;50.810;4.442;2023-06-10T06:23:55;22.50;99.90
23609;DHT22;11982;50.810;4.442;2023-06-10T06:26:21;22.40;99.90
23609;DHT22;11982;50.810;4.442;2023-06-10T06:28:46;22.50;99.90
23609;DHT22;11982;50.810;4.442;2023-06-10T06:31:12;22.60;99.90
23609;DHT22;11982;50.810;4.442;2023-06-10T06:33:38;22.90;99.90
23609;DHT22;11982;50.810;4.442;2023-06-10T06:36:04;23.00;99.90
23609;DHT22;11982;50.810;4.442;2023-06-10T06:38:29;23.20;99.90
23609;DHT22;11982;50.810;4.442;2023-06-10T06:40:55;23.30;99.90
23609;DHT22;11982;50.810;4.442;2023-06-10T06:43:21;23.40;99.90
23609;DHT22;11982;50.810;4.442;2023-06-10T06:45:47;23.30;99.90
23609;DHT22;11982;50.810;4.442;2023-06-10T06:48:12;23.30;99.90
23609;DHT22;11982;50.810;4.442;2023-06-10T06:50:38;23.40;99.90
23609;DHT22;11982;50.810;4.442;2023-06-10T06:53:04;23.60;99.90
23609;DHT22;11982;50.810;4.442;2023-06-10T06:55:30;23.60;99.90
23609;DHT22;11982;50.810;4.442;2023-06-10T06:57:55;23.50;99.90
23609;DHT22;11982;50.810;4.442;2023-06-10T07:00:21;23.40;99.90
23609;DHT22;11982;50.810;4.442;2023-06-10T07:02:48;23.40;99.90
23609;DHT22;11982;50.810;4.442;2023-06-10T07:05:14;23.70;99.90
23609;DHT22;11982;50.810;4.442;2023-06-10T07:07:39;23.90;99.90
23609;DHT22;11982;50.810;4.442;2023-06-10T07:10:05;23.90;99.90
23609;DHT22;11982;50.810;4.442;2023-06-10T07:15:34;24.00;99.90
23609;DHT22;11982;50.810;4.442;2023-06-10T07:18:00;24.00;99.90
23609;DHT22;11982;50.810;4.442;2023-06-10T07:20:25;24.20;99.90
23609;DHT22;11982;50.810;4.442;2023-06-10T07:22:51;24.30;99.90
23609;DHT22;11982;50.810;4.442;2023-06-10T07:25:17;24.40;99.90
23609;DHT22;11982;50.810;4.442;2023-06-10T07:27:43;24.40;99.90
23609;DHT22;11982;50.810;4.442;2023-06-10T07:30:08;24.40;99.90
23609;DHT22;11982;50.810;4.442;2023-06-10T07:32:34;24.40;99.90
23609;DHT22;11982;50.810;4.442;2023-06-10T07:35:00;24.40;99.90
23609;DHT22;11982;50.810;4.442;2023-06-10T07:37:26;24.60;99.90
23609;DHT22;11982;50.810;4.442;2023-06-10T07:39:51;24.80;99.90
23609;DHT22;11982;50.810;4.442;2023-06-10T07:42:17;25.00;99.90
23609;DHT22;11982;50.810;4.442;2023-06-10T07:44:43;25.00;99.90
23609;DHT22;11982;50.810;4.442;2023-06-10T07:47:08;25.00;99.90
23609;DHT22;11982;50.810;4.442;2023-06-10T07:49:34;25.10;99.90
23609;DHT22;11982;50.810;4.442;2023-06-10T07:52:00;25.20;99.90
23609;DHT22;11982;50.810;4.442;2023-06-10T07:54:25;25.00;99.90
23609;DHT22;11982;50.810;4.442;2023-06-10T07:56:51;25.10;99.90
23609;DHT22;11982;50.810;4.442;2023-06-10T07:59:19;25.20;99.90
23609;DHT22;11982;50.810;4.442;2023-06-10T08:01:45;25.20;99.90
23609;DHT22;11982;50.810;4.442;2023-06-10T08:04:10;25.30;99.90
23609;DHT22;11982;50.810;4.442;2023-06-10T08:06:36;25.30;99.90
23609;DHT22;11982;50.810;4.442;2023-06-10T08:09:03;25.30;99.90
23609;DHT22;11982;50.810;4.442;2023-06-10T08:11:29;25.30;99.90
23609;DHT22;11982;50.810;4.442;2023-06-10T08:13:55;25.40;99.90
23609;DHT22;11982;50.810;4.442;2023-06-10T08:16:21;25.40;99.90
23609;DHT22;11982;50.810;4.442;2023-06-10T08:18:46;25.70;99.90
23609;DHT22;11982;50.810;4.442;2023-06-10T08:21:12;26.10;99.90
23609;DHT22;11982;50.810;4.442;2023-06-10T08:23:38;26.10;99.90
23609;DHT22;11982;50.810;4.442;2023-06-10T08:26:04;26.10;99.90
23609;DHT22;11982;50.810;4.442;2023-06-10T08:28:44;26.00;99.90
23609;DHT22;11982;50.810;4.442;2023-06-10T08:31:15;26.10;99.90
23609;DHT22;11982;50.810;4.442;2023-06-10T08:33:42;26.20;99.90
23609;DHT22;11982;50.810;4.442;2023-06-10T08:36:07;26.20;99.90
23609;DHT22;11982;50.810;4.442;2023-06-10T08:38:33;26.20;99.90
23609;DHT22;11982;50.810;4.442;2023-06-10T08:40:59;26.30;99.90
23609;DHT22;11982;50.810;4.442;2023-06-10T08:46:36;26.50;99.90
23609;DHT22;11982;50.810;4.442;2023-06-10T08:49:06;26.60;99.90
23609;DHT22;11982;50.810;4.442;2023-06-10T08:51:34;26.60;99.90
23609;DHT22;11982;50.810;4.442;2023-06-10T08:54:04;26.50;99.90
23609;DHT22;11982;50.810;4.442;2023-06-10T08:56:35;26.60;99.90
23609;DHT22;11982;50.810;4.442;2023-06-10T08:59:05;26.80;99.90
23609;DHT22;11982;50.810;4.442;2023-06-10T09:01:31;26.90;99.90
23609;DHT22;11982;50.810;4.442;2023-06-10T09:03:58;27.00;99.90
23609;DHT22;11982;50.810;4.442;2023-06-10T09:06:25;27.20;99.90
23609;DHT22;11982;50.810;4.442;2023-06-10T09:08:51;27.40;99.90
23609;DHT22;11982;50.810;4.442;2023-06-10T09:11:17;27.40;99.90
23609;DHT22;11982;50.810;4.442;2023-06-10T09:13:43;27.60;99.90
23609;DHT22;11982;50.810;4.442;2023-06-10T09:16:09;27.60;99.90
23609;DHT22;11982;50.810;4.442;2023-06-10T09:18:37;27.90;99.90
23609;DHT22;11982;50.810;4.442;2023-06-10T09:21:03;27.90;99.90
23609;DHT22;11982;50.810;4.442;2023-06-10T09:23:29;28.10;99.90
23609;DHT22;11982;50.810;4.442;2023-06-10T09:25:58;28.30;99.90
23609;DHT22;11982;50.810;4.442;2023-06-10T09:28:24;28.10;99.90
23609;DHT22;11982;50.810;4.442;2023-06-10T09:31:04;28.20;99.90
23609;DHT22;11982;50.810;4.442;2023-06-10T09:33:31;28.30;99.90
23609;DHT22;11982;50.810;4.442;2023-06-10T09:35:57;28.30;99.90
23609;DHT22;11982;50.810;4.442;2023-06-10T09:38:34;28.50;99.90
23609;DHT22;11982;50.810;4.442;2023-06-10T09:41:00;28.40;99.90
23609;DHT22;11982;50.810;4.442;2023-06-10T09:43:41;28.30;99.90
23609;DHT22;11982;50.810;4.442;2023-06-10T09:46:18;28.50;99.90
23609;DHT22;11982;50.810;4.442;2023-06-10T09:48:45;28.70;99.90
23609;DHT22;11982;50.810;4.442;2023-06-10T09:51:12;28.80;99.90
23609;DHT22;11982;50.810;4.442;2023-06-10T09:53:38;28.90;99.90
23609;DHT22;11982;50.810;4.442;2023-06-10T09:56:04;28.90;99.90
23609;DHT22;11982;50.810;4.442;2023-06-10T09:58:38;28.90;99.90
23609;DHT22;11982;50.810;4.442;2023-06-10T10:01:06;28.90;99.90
23609;DHT22;11982;50.810;4.442;2023-06-10T10:03:32;28.90;99.90
23609;DHT22;11982;50.810;4.442;2023-06-10T10:05:59;28.60;99.90
23609;DHT22;11982;50.810;4.442;2023-06-10T10:08:28;28.70;99.90
23609;DHT22;11982;50.810;4.442;2023-06-10T10:10:55;28.80;99.90
23609;DHT22;11982;50.810;4.442;2023-06-10T10:13:21;29.10;99.90
23609;DHT22;11982;50.810;4.442;2023-06-10T10:15:48;29.20;99.90
23609;DHT22;11982;50.810;4.442;2023-06-10T10:18:14;29.40;99.90
23609;DHT22;11982;50.810;4.442;2023-06-10T10:20:50;29.40;99.90
23609;DHT22;11982;50.810;4.442;2023-06-10T10:23:26;29.40;99.90
23609;DHT22;11982;50.810;4.442;2023-06-10T10:25:56;29.40;99.90
23609;DHT22;11982;50.810;4.442;2023-06-10T10:28:24;29.60;99.90
23609;DHT22;11982;50.810;4.442;2023-06-10T10:30:54;29.50;99.90
23609;DHT22;11982;50.810;4.442;2023-06-10T10:33:33;29.50;99.90
23609;DHT22;11982;50.810;4.442;2023-06-10T10:36:02;29.60;99.90
23609;DHT22;11982;50.810;4.442;2023-06-10T10:38:28;29.50;99.90
23609;DHT22;11982;50.810;4.442;2023-06-10T10:40:55;29.70;99.90
23609;DHT22;11982;50.810;4.442;2023-06-10T10:43:25;29.80;99.90
23609;DHT22;11982;50.810;4.442;2023-06-10T10:46:01;29.90;99.90
23609;DHT22;11982;50.810;4.442;2023-06-10T10:48:37;29.90;99.90
23609;DHT22;11982;50.810;4.442;2023-06-10T10:51:03;29.90;99.90
23609;DHT22;11982;50.810;4.442;2023-06-10T10:53:29;30.00;99.90
23609;DHT22;11982;50.810;4.442;2023-06-10T10:56:15;30.00;97.90
23609;DHT22;11982;50.810;4.442;2023-06-10T10:59:04;30.10;98.60
23609;DHT22;11982;50.810;4.442;2023-06-10T11:01:41;30.00;97.10
23609;DHT22;11982;50.810;4.442;2023-06-10T11:04:08;30.00;98.80
23609;DHT22;11982;50.810;4.442;2023-06-10T11:06:34;29.80;97.60
23609;DHT22;11982;50.810;4.442;2023-06-10T11:09:01;29.70;96.20
23609;DHT22;11982;50.810;4.442;2023-06-10T11:11:50;29.90;96.60
23609;DHT22;11982;50.810;4.442;2023-06-10T11:14:29;30.00;97.50
23609;DHT22;11982;50.810;4.442;2023-06-10T11:16:59;30.10;97.10
23609;DHT22;11982;50.810;4.442;2023-06-10T11:19:45;29.90;93.60
23609;DHT22;11982;50.810;4.442;2023-06-10T11:22:17;29.70;94.80
23609;DHT22;11982;50.810;4.442;2023-06-10T11:24:48;30.00;95.40
23609;DHT22;11982;50.810;4.442;2023-06-10T11:27:22;30.40;96.00
23609;DHT22;11982;50.810;4.442;2023-06-10T11:32:34;30.80;93.90
23609;DHT22;11982;50.810;4.442;2023-06-10T11:35:03;30.60;94.00
23609;DHT22;11982;50.810;4.442;2023-06-10T11:37:29;30.40;94.20
23609;DHT22;11982;50.810;4.442;2023-06-10T11:39:55;30.20;94.10
23609;DHT22;11982;50.810;4.442;2023-06-10T11:42:24;30.30;94.70
23609;DHT22;11982;50.810;4.442;2023-06-10T11:44:54;30.50;91.90
23609;DHT22;11982;50.810;4.442;2023-06-10T11:47:20;30.60;93.00
23609;DHT22;11982;50.810;4.442;2023-06-10T11:49:56;30.60;91.70
23609;DHT22;11982;50.810;4.442;2023-06-10T11:52:29;30.40;91.20
23609;DHT22;11982;50.810;4.442;2023-06-10T11:54:57;30.30;92.40
23609;DHT22;11982;50.810;4.442;2023-06-10T11:57:23;30.10;92.20
23609;DHT22;11982;50.810;4.442;2023-06-10T11:59:49;30.40;93.30
23609;DHT22;11982;50.810;4.442;2023-06-10T12:02:16;30.60;93.50
23609;DHT22;11982;50.810;4.442;2023-06-10T12:04:41;30.50;93.50
23609;DHT22;11982;50.810;4.442;2023-06-10T12:07:07;30.70;92.30
23609;DHT22;11982;50.810;4.442;2023-06-10T12:09:33;30.80;90.60
23609;DHT22;11982;50.810;4.442;2023-06-10T12:12:00;30.80;91.30
23609;DHT22;11982;50.810;4.442;2023-06-10T12:14:53;31.10;90.50
23609;DHT22;11982;50.810;4.442;2023-06-10T12:20:03;31.80;92.80
23609;DHT22;11982;50.810;4.442;2023-06-10T12:22:42;32.30;92.10
23609;DHT22;11982;50.810;4.442;2023-06-10T12:25:10;32.20;89.40
23609;DHT22;11982;50.810;4.442;2023-06-10T12:27:37;31.60;87.90
23609;DHT22;11982;50.810;4.442;2023-06-10T12:30:05;31.40;90.40
23609;DHT22;11982;50.810;4.442;2023-06-10T12:32:42;31.60;90.40
23609;DHT22;11982;50.810;4.442;2023-06-10T12:35:09;31.40;89.70
23609;DHT22;11982;50.810;4.442;2023-06-10T12:37:35;31.60;90.00
23609;DHT22;11982;50.810;4.442;2023-06-10T12:40:03;31.50;88.20
23609;DHT22;11982;50.810;4.442;2023-06-10T12:42:30;31.20;87.30
23609;DHT22;11982;50.810;4.442;2023-06-10T12:44:59;31.40;91.10
23609;DHT22;11982;50.810;4.442;2023-06-10T12:47:33;31.60;87.10
23609;DHT22;11982;50.810;4.442;2023-06-10T12:50:03;31.70;90.00
23609;DHT22;11982;50.810;4.442;2023-06-10T12:52:29;32.00;89.10
23609;DHT22;11982;50.810;4.442;2023-06-10T12:54:55;32.00;87.80
23609;DHT22;11982;50.810;4.442;2023-06-10T12:57:22;32.00;85.70
23609;DHT22;11982;50.810;4.442;2023-06-10T12:59:48;32.00;85.70
23609;DHT22;11982;50.810;4.442;2023-06-10T13:02:22;31.80;87.50
23609;DHT22;11982;50.810;4.442;2023-06-10T13:04:52;32.00;88.50
23609;DHT22;11982;50.810;4.442;2023-06-10T13:07:19;32.00;88.40
23609;DHT22;11982;50.810;4.442;2023-06-10T13:09:45;32.30;88.80
23609;DHT22;11982;50.810;4.442;2023-06-10T13:12:14;32.70;85.70
23609;DHT22;11982;50.810;4.442;2023-06-10T13:14:49;32.30;85.90
23609;DHT22;11982;50.810;4.442;2023-06-10T13:17:27;32.70;86.10
23609;DHT22;11982;50.810;4.442;2023-06-10T13:19:53;33.30;84.70
23609;DHT22;11982;50.810;4.442;2023-06-10T13:22:19;33.70;84.50
23609;DHT22;11982;50.810;4.442;2023-06-10T13:24:46;33.80;84.30
23609;DHT22;11982;50.810;4.442;2023-06-10T13:27:12;34.00;78.50
23609;DHT22;11982;50.810;4.442;2023-06-10T13:29:39;33.90;78.00
23609;DHT22;11982;50.810;4.442;2023-06-10T13:32:06;33.10;78.90
23609;DHT22;11982;50.810;4.442;2023-06-10T13:34:32;32.80;80.70
23609;DHT22;11982;50.810;4.442;2023-06-10T13:36:57;32.50;78.60
23609;DHT22;11982;50.810;4.442;2023-06-10T13:39:24;33.40;82.50
23609;DHT22;11982;50.810;4.442;2023-06-10T13:41:49;33.20;78.10
23609;DHT22;11982;50.810;4.442;2023-06-10T13:44:15;32.80;76.60
23609;DHT22;11982;50.810;4.442;2023-06-10T13:46:41;33.30;81.90
23609;DHT22;11982;50.810;4.442;2023-06-10T13:49:06;34.40;77.80
23609;DHT22;11982;50.810;4.442;2023-06-10T13:51:32;35.10;74.70
23609;DHT22;11982;50.810;4.442;2023-06-10T13:53:58;34.90;72.70
23609;DHT22;11982;50.810;4.442;2023-06-10T13:56:24;35.20;74.20
23609;DHT22;11982;50.810;4.442;2023-06-10T13:58:50;35.40;72.20
23609;DHT22;11982;50.810;4.442;2023-06-10T14:01:16;34.50;69.20
23609;DHT22;11982;50.810;4.442;2023-06-10T14:03:42;34.40;68.90
23609;DHT22;11982;50.810;4.442;2023-06-10T14:06:07;34.90;71.70
23609;DHT22;11982;50.810;4.442;2023-06-10T14:08:34;34.50;69.10
23609;DHT22;11982;50.810;4.442;2023-06-10T14:11:00;34.50;70.60
23609;DHT22;11982;50.810;4.442;2023-06-10T14:13:25;35.00;70.00
23609;DHT22;11982;50.810;4.442;2023-06-10T14:15:51;35.60;69.30
23609;DHT22;11982;50.810;4.442;2023-06-10T14:18:18;35.50;66.00
23609;DHT22;11982;50.810;4.442;2023-06-10T14:20:43;36.00;69.30
23609;DHT22;11982;50.810;4.442;2023-06-10T14:23:09;35.50;67.90
23609;DHT22;11982;50.810;4.442;2023-06-10T14:25:35;35.30;67.10
23609;DHT22;11982;50.810;4.442;2023-06-10T14:28:00;35.70;66.10
23609;DHT22;11982;50.810;4.442;2023-06-10T14:30:26;35.50;64.20
23609;DHT22;11982;50.810;4.442;2023-06-10T14:32:52;35.80;64.20
23609;DHT22;11982;50.810;4.442;2023-06-10T14:35:17;34.70;61.50
23609;DHT22;11982;50.810;4.442;2023-06-10T14:37:43;33.90;65.40
23609;DHT22;11982;50.810;4.442;2023-06-10T14:40:09;33.30;65.90
23609;DHT22;11982;50.810;4.442;2023-06-10T14:42:35;33.20;68.50
23609;DHT22;11982;50.810;4.442;2023-06-10T14:45:01;34.00;68.70
23609;DHT22;11982;50.810;4.442;2023-06-10T14:47:26;34.70;66.50
23609;DHT22;11982;50.810;4.442;2023-06-10T14:49:52;35.00;65.60
23609;DHT22;11982;50.810;4.442;2023-06-10T14:52:18;35.50;64.40
23609;DHT22;11982;50.810;4.442;2023-06-10T14:54:44;35.60;63.90
23609;DHT22;11982;50.810;4.442;2023-06-10T14:57:09;35.30;63.40
23609;DHT22;11982;50.810;4.442;2023-06-10T14:59:36;35.50;63.70
23609;DHT22;11982;50.810;4.442;2023-06-10T15:02:01;35.50;63.60
23609;DHT22;11982;50.810;4.442;2023-06-10T15:04:27;35.80;62.40
23609;DHT22;11982;50.810;4.442;2023-06-10T15:06:53;34.90;62.70
23609;DHT22;11982;50.810;4.442;2023-06-10T15:09:19;35.20;61.60
23609;DHT22;11982;50.810;4.442;2023-06-10T15:11:45;34.80;63.30
23609;DHT22;11982;50.810;4.442;2023-06-10T15:14:11;34.80;63.70
23609;DHT22;11982;50.810;4.442;2023-06-10T15:16:36;35.20;63.80
23609;DHT22;11982;50.810;4.442;2023-06-10T15:19:02;35.40;61.80
23609;DHT22;11982;50.810;4.442;2023-06-10T15:21:28;35.60;61.10
23609;DHT22;11982;50.810;4.442;2023-06-10T15:23:54;37.10;60.90
23609;DHT22;11982;50.810;4.442;2023-06-10T15:26:20;37.10;60.60
23609;DHT22;11982;50.810;4.442;2023-06-10T15:28:45;36.30;58.70
23609;DHT22;11982;50.810;4.442;2023-06-10T15:31:11;35.80;60.20
23609;DHT22;11982;50.810;4.442;2023-06-10T15:33:37;36.50;60.40
23609;DHT22;11982;50.810;4.442;2023-06-10T15:36:03;36.10;59.50
23609;DHT22;11982;50.810;4.442;2023-06-10T15:38:30;35.50;58.60
23609;DHT22;11982;50.810;4.442;2023-06-10T15:40:56;35.80;59.00
23609;DHT22;11982;50.810;4.442;2023-06-10T15:43:21;35.40;58.60